sensor_id;sensor_type;location;lat;lon;timestamp;temperature;humidity
32522;DHT22;18963;51.504;5.316;2022-08-14T00:02:08;17.50;99.90
32522;DHT22;18963;51.504;5.316;2022-08-14T00:04:34;17.50;99.90
32522;DHT22;18963;51.504;5.316;2022-08-14T00:07:00;17.50;99.90
32522;DHT22;18963;51.504;5.316;2022-08-14T00:09:26;17.40;99.90
32522;DHT22;18963;51.504;5.316;2022-08-14T00:11:51;17.40;99.90
32522;DHT22;18963;51.504;5.316;2022-08-14T00:14:17;17.30;99.90
32522;DHT22;18963;51.504;5.316;2022-08-14T00:16:42;17.30;99.90
32522;DHT22;18963;51.504;5.316;2022-08-14T00:19:08;17.30;99.90
32522;DHT22;18963;51.504;5.316;2022-08-14T00:21:34;17.30;99.90
32522;DHT22;18963;51.504;5.316;2022-08-14T00:23:59;17.30;99.90
32522;DHT22;18963;51.504;5.316;2022-08-14T00:26:25;17.30;99.90
32522;DHT22;18963;51.504;5.316;2022-08-14T00:28:51;17.20;99.90
32522;DHT22;18963;51.504;5.316;2022-08-14T00:31:17;17.20;99.90
32522;DHT22;18963;51.504;5.316;2022-08-14T00:33:42;17.30;99.90
32522;DHT22;18963;51.504;5.316;2022-08-14T00:36:08;17.20;99.90
32522;DHT22;18963;51.504;5.316;2022-08-14T00:38:34;17.20;99.90
32522;DHT22;18963;51.504;5.316;2022-08-14T00:41:00;17.20;99.90
32522;DHT22;18963;51.504;5.316;2022-08-14T00:43:26;17.20;99.90
32522;DHT22;18963;51.504;5.316;2022-08-14T00:45:52;17.20;99.90
32522;DHT22;18963;51.504;5.316;2022-08-14T00:48:17;17.20;99.90
32522;DHT22;18963;51.504;5.316;2022-08-14T00:50:43;17.20;99.90
32522;DHT22;18963;51.504;5.316;2022-08-14T00:53:09;17.20;99.90
32522;DHT22;18963;51.504;5.316;2022-08-14T00:55:34;17.10;99.90
32522;DHT22;18963;51.504;5.316;2022-08-14T00:58:00;17.10;99.90
32522;DHT22;18963;51.504;5.316;2022-08-14T01:00:44;17.00;99.90
32522;DHT22;18963;51.504;5.316;2022-08-14T01:03:12;17.10;99.90
32522;DHT22;18963;51.504;5.316;2022-08-14T01:05:37;17.10;99.90
32522;DHT22;18963;51.504;5.316;2022-08-14T01:08:03;17.10;99.90
32522;DHT22;18963;51.504;5.316;2022-08-14T01:10:28;17.10;99.90
32522;DHT22;18963;51.504;5.316;2022-08-14T01:13:13;17.10;99.90
32522;DHT22;18963;51.504;5.316;2022-08-14T01:15:42;17.10;99.90
32522;DHT22;18963;51.504;5.316;2022-08-14T01:18:07;17.20;99.90
32522;DHT22;18963;51.504;5.316;2022-08-14T01:20:52;17.30;99.90
32522;DHT22;18963;51.504;5.316;2022-08-14T01:23:41;17.30;99.90
32522;DHT22;18963;51.504;5.316;2022-08-14T01:26:07;17.40;99.90
32522;DHT22;18963;51.504;5.316;2022-08-14T01:28:33;17.50;99.90
32522;DHT22;18963;51.504;5.316;2022-08-14T01:31:03;17.50;99.90
32522;DHT22;18963;51.504;5.316;2022-08-14T01:33:30;17.50;99.90
32522;DHT22;18963;51.504;5.316;2022-08-14T01:35:56;17.40;99.90
32522;DHT22;18963;51.504;5.316;2022-08-14T01:38:26;17.30;99.90
32522;DHT22;18963;51.504;5.316;2022-08-14T01:40:55;17.30;99.90
32522;DHT22;18963;51.504;5.316;2022-08-14T01:43:21;17.20;99.90
32522;DHT22;18963;51.504;5.316;2022-08-14T01:45:47;17.20;99.90
32522;DHT22;18963;51.504;5.316;2022-08-14T01:48:17;17.20;99.90
32522;DHT22;18963;51.504;5.316;2022-08-14T01:50:43;17.10;99.90
32522;DHT22;18963;51.504;5.316;2022-08-14T01:53:09;17.00;99.90
32522;DHT22;18963;51.504;5.316;2022-08-14T01:55:35;16.90;99.90
32522;DHT22;18963;51.504;5.316;2022-08-14T01:58:01;16.80;99.90
32522;DHT22;18963;51.504;5.316;2022-08-14T02:00:27;16.70;99.90
32522;DHT22;18963;51.504;5.316;2022-08-14T02:02:54;16.60;99.90
32522;DHT22;18963;51.504;5.316;2022-08-14T02:05:19;16.50;99.90
32522;DHT22;18963;51.504;5.316;2022-08-14T02:07:46;16.40;99.90
32522;DHT22;18963;51.504;5.316;2022-08-14T02:10:11;16.40;99.90
32522;DHT22;18963;51.504;5.316;2022-08-14T02:12:37;16.20;99.90
32522;DHT22;18963;51.504;5.316;2022-08-14T02:15:04;16.20;99.90
32522;DHT22;18963;51.504;5.316;2022-08-14T02:17:31;16.10;99.90
32522;DHT22;18963;51.504;5.316;2022-08-14T02:19:57;16.10;99.90
32522;DHT22;18963;51.504;5.316;2022-08-14T02:22:22;16.00;99.90
32522;DHT22;18963;51.504;5.316;2022-08-14T02:24:48;15.90;99.90
32522;DHT22;18963;51.504;5.316;2022-08-14T02:27:15;15.80;99.90
32522;DHT22;18963;51.504;5.316;2022-08-14T02:29:42;15.80;99.90
32522;DHT22;18963;51.504;5.316;2022-08-14T02:32:08;15.70;99.90
32522;DHT22;18963;51.504;5.316;2022-08-14T02:34:35;15.60;99.90
32522;DHT22;18963;51.504;5.316;2022-08-14T02:39:28;15.60;99.90
32522;DHT22;18963;51.504;5.316;2022-08-14T02:41:55;15.60;99.90
32522;DHT22;18963;51.504;5.316;2022-08-14T02:44:20;15.50;99.90
32522;DHT22;18963;51.504;5.316;2022-08-14T02:46:48;15.50;99.90
32522;DHT22;18963;51.504;5.316;2022-08-14T02:49:13;15.40;99.90
32522;DHT22;18963;51.504;5.316;2022-08-14T02:51:39;15.40;99.90
32522;DHT22;18963;51.504;5.316;2022-08-14T02:54:05;15.40;99.90
32522;DHT22;18963;51.504;5.316;2022-08-14T02:56:31;15.30;99.90
32522;DHT22;18963;51.504;5.316;2022-08-14T02:58:57;15.30;99.90
32522;DHT22;18963;51.504;5.316;2022-08-14T03:01:26;15.20;99.90
32522;DHT22;18963;51.504;5.316;2022-08-14T03:03:53;15.10;99.90
32522;DHT22;18963;51.504;5.316;2022-08-14T03:06:18;15.10;99.90
32522;DHT22;18963;51.504;5.316;2022-08-14T03:08:45;15.10;99.90
32522;DHT22;18963;51.504;5.316;2022-08-14T03:11:11;15.10;99.90
32522;DHT22;18963;51.504;5.316;2022-08-14T03:13:38;15.10;99.90
32522;DHT22;18963;51.504;5.316;2022-08-14T03:16:07;15.20;99.90
32522;DHT22;18963;51.504;5.316;2022-08-14T03:18:33;15.10;99.90
32522;DHT22;18963;51.504;5.316;2022-08-14T03:20:59;15.10;99.90
32522;DHT22;18963;51.504;5.316;2022-08-14T03:23:25;15.10;99.90
32522;DHT22;18963;51.504;5.316;2022-08-14T03:25:51;15.10;99.90
32522;DHT22;18963;51.504;5.316;2022-08-14T03:28:16;15.10;99.90
32522;DHT22;18963;51.504;5.316;2022-08-14T03:30:42;15.00;99.90
32522;DHT22;18963;51.504;5.316;2022-08-14T03:33:08;15.10;99.90
32522;DHT22;18963;51.504;5.316;2022-08-14T03:35:34;15.10;99.90
32522;DHT22;18963;51.504;5.316;2022-08-14T03:38:03;15.10;99.90
32522;DHT22;18963;51.504;5.316;2022-08-14T03:40:29;15.10;99.90
32522;DHT22;18963;51.504;5.316;2022-08-14T03:42:54;15.10;99.90
32522;DHT22;18963;51.504;5.316;2022-08-14T03:45:20;15.10;99.90
32522;DHT22;18963;51.504;5.316;2022-08-14T03:47:48;15.00;99.90
32522;DHT22;18963;51.504;5.316;2022-08-14T03:50:14;14.90;99.90
32522;DHT22;18963;51.504;5.316;2022-08-14T03:52:40;14.80;99.90
32522;DHT22;18963;51.504;5.316;2022-08-14T03:55:08;14.80;99.90
32522;DHT22;18963;51.504;5.316;2022-08-14T03:57:37;14.70;99.90
32522;DHT22;18963;51.504;5.316;2022-08-14T04:00:07;14.70;99.90
32522;DHT22;18963;51.504;5.316;2022-08-14T04:02:35;14.60;99.90
32522;DHT22;18963;51.504;5.316;2022-08-14T04:05:01;14.50;99.90
32522;DHT22;18963;51.504;5.316;2022-08-14T04:07:26;14.50;99.90
32522;DHT22;18963;51.504;5.316;2022-08-14T04:09:52;14.50;99.90
32522;DHT22;18963;51.504;5.316;2022-08-14T04:12:17;14.40;99.90
32522;DHT22;18963;51.504;5.316;2022-08-14T04:14:44;14.40;99.90
32522;DHT22;18963;51.504;5.316;2022-08-14T04:17:09;14.40;99.90
32522;DHT22;18963;51.504;5.316;2022-08-14T04:19:35;14.40;99.90
32522;DHT22;18963;51.504;5.316;2022-08-14T04:22:02;14.30;99.90
32522;DHT22;18963;51.504;5.316;2022-08-14T04:24:27;14.30;99.90
32522;DHT22;18963;51.504;5.316;2022-08-14T04:26:53;14.30;99.90
32522;DHT22;18963;51.504;5.316;2022-08-14T04:29:19;14.30;99.90
32522;DHT22;18963;51.504;5.316;2022-08-14T04:31:45;14.30;99.90
32522;DHT22;18963;51.504;5.316;2022-08-14T04:34:11;14.30;99.90
32522;DHT22;18963;51.504;5.316;2022-08-14T04:36:37;14.40;99.90
32522;DHT22;18963;51.504;5.316;2022-08-14T04:39:22;14.40;99.90
32522;DHT22;18963;51.504;5.316;2022-08-14T04:42:07;14.50;99.90
32522;DHT22;18963;51.504;5.316;2022-08-14T04:44:51;14.50;99.90
32522;DHT22;18963;51.504;5.316;2022-08-14T04:47:16;14.60;99.90
32522;DHT22;18963;51.504;5.316;2022-08-14T04:50:01;14.60;99.90
32522;DHT22;18963;51.504;5.316;2022-08-14T04:52:28;14.70;99.90
32522;DHT22;18963;51.504;5.316;2022-08-14T04:54:53;14.70;99.90
32522;DHT22;18963;51.504;5.316;2022-08-14T04:57:18;14.70;99.90
32522;DHT22;18963;51.504;5.316;2022-08-14T04:59:44;14.70;99.90
32522;DHT22;18963;51.504;5.316;2022-08-14T05:02:09;14.70;99.90
32522;DHT22;18963;51.504;5.316;2022-08-14T05:04:35;14.70;99.90
32522;DHT22;18963;51.504;5.316;2022-08-14T05:07:00;14.60;99.90
32522;DHT22;18963;51.504;5.316;2022-08-14T05:09:26;14.70;99.90
32522;DHT22;18963;51.504;5.316;2022-08-14T05:11:51;14.70;99.90
32522;DHT22;18963;51.504;5.316;2022-08-14T05:14:17;14.70;99.90
32522;DHT22;18963;51.504;5.316;2022-08-14T05:16:46;14.70;99.90
32522;DHT22;18963;51.504;5.316;2022-08-14T05:19:12;14.80;99.90
32522;DHT22;18963;51.504;5.316;2022-08-14T05:21:39;14.90;99.90
32522;DHT22;18963;51.504;5.316;2022-08-14T05:24:04;15.10;99.90
32522;DHT22;18963;51.504;5.316;2022-08-14T05:26:30;15.20;99.90
32522;DHT22;18963;51.504;5.316;2022-08-14T05:28:55;15.40;99.90
32522;DHT22;18963;51.504;5.316;2022-08-14T05:31:21;15.70;99.90
32522;DHT22;18963;51.504;5.316;2022-08-14T05:33:46;15.90;99.90
32522;DHT22;18963;51.504;5.316;2022-08-14T05:36:13;16.10;99.90
32522;DHT22;18963;51.504;5.316;2022-08-14T05:38:40;16.40;99.90
32522;DHT22;18963;51.504;5.316;2022-08-14T05:41:07;16.60;99.90
32522;DHT22;18963;51.504;5.316;2022-08-14T05:43:33;16.90;99.90
32522;DHT22;18963;51.504;5.316;2022-08-14T05:45:59;17.10;99.90
32522;DHT22;18963;51.504;5.316;2022-08-14T05:48:25;17.40;99.90
32522;DHT22;18963;51.504;5.316;2022-08-14T05:50:52;17.80;99.90
32522;DHT22;18963;51.504;5.316;2022-08-14T05:53:19;18.10;99.90
32522;DHT22;18963;51.504;5.316;2022-08-14T05:55:45;18.40;99.90
32522;DHT22;18963;51.504;5.316;2022-08-14T05:58:10;18.70;99.90
32522;DHT22;18963;51.504;5.316;2022-08-14T06:00:37;19.00;99.90
32522;DHT22;18963;51.504;5.316;2022-08-14T06:03:04;19.30;99.90
32522;DHT22;18963;51.504;5.316;2022-08-14T06:05:30;19.60;99.90
32522;DHT22;18963;51.504;5.316;2022-08-14T06:07:56;19.90;99.90
32522;DHT22;18963;51.504;5.316;2022-08-14T06:10:22;20.20;99.90
32522;DHT22;18963;51.504;5.316;2022-08-14T06:12:47;20.50;99.90
32522;DHT22;18963;51.504;5.316;2022-08-14T06:15:13;20.80;99.90
32522;DHT22;18963;51.504;5.316;2022-08-14T06:17:48;21.10;99.90
32522;DHT22;18963;51.504;5.316;2022-08-14T06:20:14;21.40;99.90
32522;DHT22;18963;51.504;5.316;2022-08-14T06:22:40;21.70;99.90
32522;DHT22;18963;51.504;5.316;2022-08-14T06:25:07;22.10;99.90
32522;DHT22;18963;51.504;5.316;2022-08-14T06:27:39;22.40;99.80
32522;DHT22;18963;51.504;5.316;2022-08-14T06:30:09;22.60;98.80
32522;DHT22;18963;51.504;5.316;2022-08-14T06:32:35;23.00;97.10
32522;DHT22;18963;51.504;5.316;2022-08-14T06:35:02;23.20;96.90
32522;DHT22;18963;51.504;5.316;2022-08-14T06:37:36;23.50;96.20
32522;DHT22;18963;51.504;5.316;2022-08-14T06:40:02;23.70;95.30
32522;DHT22;18963;51.504;5.316;2022-08-14T06:42:28;23.90;94.20
32522;DHT22;18963;51.504;5.316;2022-08-14T06:44:53;24.10;92.70
32522;DHT22;18963;51.504;5.316;2022-08-14T06:47:19;24.30;92.80
32522;DHT22;18963;51.504;5.316;2022-08-14T06:49:44;24.50;91.70
32522;DHT22;18963;51.504;5.316;2022-08-14T06:52:10;24.80;91.10
32522;DHT22;18963;51.504;5.316;2022-08-14T06:54:35;24.80;90.70
32522;DHT22;18963;51.504;5.316;2022-08-14T06:57:00;25.10;90.10
32522;DHT22;18963;51.504;5.316;2022-08-14T06:59:26;25.30;88.40
32522;DHT22;18963;51.504;5.316;2022-08-14T07:01:51;25.60;85.00
32522;DHT22;18963;51.504;5.316;2022-08-14T07:04:35;25.80;83.70
32522;DHT22;18963;51.504;5.316;2022-08-14T07:07:21;25.90;81.00
32522;DHT22;18963;51.504;5.316;2022-08-14T07:09:47;26.10;80.70
32522;DHT22;18963;51.504;5.316;2022-08-14T07:12:14;26.20;77.60
32522;DHT22;18963;51.504;5.316;2022-08-14T07:14:39;26.20;77.10
32522;DHT22;18963;51.504;5.316;2022-08-14T07:17:05;26.40;77.00
32522;DHT22;18963;51.504;5.316;2022-08-14T07:19:30;26.60;75.50
32522;DHT22;18963;51.504;5.316;2022-08-14T07:21:56;26.80;74.50
32522;DHT22;18963;51.504;5.316;2022-08-14T07:24:21;26.90;72.60
32522;DHT22;18963;51.504;5.316;2022-08-14T07:26:47;27.10;72.90
32522;DHT22;18963;51.504;5.316;2022-08-14T07:29:12;27.30;72.60
32522;DHT22;18963;51.504;5.316;2022-08-14T07:31:38;27.40;71.10
32522;DHT22;18963;51.504;5.316;2022-08-14T07:34:03;27.70;69.80
32522;DHT22;18963;51.504;5.316;2022-08-14T07:36:28;27.80;68.70
32522;DHT22;18963;51.504;5.316;2022-08-14T07:38:54;27.70;67.50
32522;DHT22;18963;51.504;5.316;2022-08-14T07:41:19;28.00;66.80
32522;DHT22;18963;51.504;5.316;2022-08-14T07:43:45;28.10;66.10
32522;DHT22;18963;51.504;5.316;2022-08-14T07:46:12;28.20;65.70
32522;DHT22;18963;51.504;5.316;2022-08-14T07:48:39;28.40;65.70
32522;DHT22;18963;51.504;5.316;2022-08-14T07:51:05;28.70;64.70
32522;DHT22;18963;51.504;5.316;2022-08-14T07:53:30;29.00;62.50
32522;DHT22;18963;51.504;5.316;2022-08-14T07:55:56;29.10;61.30
32522;DHT22;18963;51.504;5.316;2022-08-14T07:58:21;29.50;60.00
32522;DHT22;18963;51.504;5.316;2022-08-14T08:00:47;29.70;60.30
32522;DHT22;18963;51.504;5.316;2022-08-14T08:03:14;30.10;58.90
32522;DHT22;18963;51.504;5.316;2022-08-14T08:05:41;30.30;58.00
32522;DHT22;18963;51.504;5.316;2022-08-14T08:08:07;30.60;57.80
32522;DHT22;18963;51.504;5.316;2022-08-14T08:10:33;30.90;56.70
32522;DHT22;18963;51.504;5.316;2022-08-14T08:13:09;31.10;56.40
32522;DHT22;18963;51.504;5.316;2022-08-14T08:15:41;31.30;55.90
32522;DHT22;18963;51.504;5.316;2022-08-14T08:18:07;31.50;56.10
32522;DHT22;18963;51.504;5.316;2022-08-14T08:20:34;31.80;54.80
32522;DHT22;18963;51.504;5.316;2022-08-14T08:23:00;32.00;54.70
32522;DHT22;18963;51.504;5.316;2022-08-14T08:25:27;32.20;52.90
32522;DHT22;18963;51.504;5.316;2022-08-14T08:28:04;32.50;53.00
32522;DHT22;18963;51.504;5.316;2022-08-14T08:30:33;32.80;51.80
32522;DHT22;18963;51.504;5.316;2022-08-14T08:32:59;32.90;51.20
32522;DHT22;18963;51.504;5.316;2022-08-14T08:35:30;33.00;50.60
32522;DHT22;18963;51.504;5.316;2022-08-14T08:38:06;33.00;50.00
32522;DHT22;18963;51.504;5.316;2022-08-14T08:40:33;33.20;49.20
32522;DHT22;18963;51.504;5.316;2022-08-14T08:43:02;33.50;48.30
32522;DHT22;18963;51.504;5.316;2022-08-14T08:45:28;33.70;48.10
32522;DHT22;18963;51.504;5.316;2022-08-14T08:47:53;34.00;47.70
32522;DHT22;18963;51.504;5.316;2022-08-14T08:52:48;34.40;46.70
32522;DHT22;18963;51.504;5.316;2022-08-14T08:55:15;34.30;47.00
32522;DHT22;18963;51.504;5.316;2022-08-14T08:57:40;34.70;46.70
32522;DHT22;18963;51.504;5.316;2022-08-14T09:00:13;34.80;45.30
32522;DHT22;18963;51.504;5.316;2022-08-14T09:02:51;34.60;44.60
32522;DHT22;18963;51.504;5.316;2022-08-14T09:05:20;34.40;44.60
32522;DHT22;18963;51.504;5.316;2022-08-14T09:07:46;34.70;44.80
32522;DHT22;18963;51.504;5.316;2022-08-14T09:10:12;34.90;43.60
32522;DHT22;18963;51.504;5.316;2022-08-14T09:12:37;35.20;43.10
32522;DHT22;18963;51.504;5.316;2022-08-14T09:15:04;35.60;42.20
32522;DHT22;18963;51.504;5.316;2022-08-14T09:17:30;35.90;41.60
32522;DHT22;18963;51.504;5.316;2022-08-14T09:19:56;36.00;41.30
32522;DHT22;18963;51.504;5.316;2022-08-14T09:22:22;36.00;41.00
32522;DHT22;18963;51.504;5.316;2022-08-14T09:24:47;36.30;40.50
32522;DHT22;18963;51.504;5.316;2022-08-14T09:27:13;36.50;41.10
32522;DHT22;18963;51.504;5.316;2022-08-14T09:29:39;36.40;41.20
32522;DHT22;18963;51.504;5.316;2022-08-14T09:32:06;36.50;41.30
32522;DHT22;18963;51.504;5.316;2022-08-14T09:42:05;36.50;39.70
32522;DHT22;18963;51.504;5.316;2022-08-14T09:47:16;36.50;39.70
32522;DHT22;18963;51.504;5.316;2022-08-14T09:49:43;36.50;38.90
32522;DHT22;18963;51.504;5.316;2022-08-14T09:52:12;36.70;39.10
32522;DHT22;18963;51.504;5.316;2022-08-14T09:54:42;36.80;38.80
32522;DHT22;18963;51.504;5.316;2022-08-14T09:57:08;36.60;37.90
32522;DHT22;18963;51.504;5.316;2022-08-14T09:59:41;36.60;38.60
32522;DHT22;18963;51.504;5.316;2022-08-14T10:02:20;36.90;38.60
32522;DHT22;18963;51.504;5.316;2022-08-14T10:04:57;37.20;37.90
32522;DHT22;18963;51.504;5.316;2022-08-14T10:08:15;37.30;38.80
32522;DHT22;18963;51.504;5.316;2022-08-14T10:10:08;36.80;39.80
32522;DHT22;18963;51.504;5.316;2022-08-14T10:12:41;37.10;40.90
32522;DHT22;18963;51.504;5.316;2022-08-14T10:15:14;37.70;39.30
32522;DHT22;18963;51.504;5.316;2022-08-14T10:17:39;37.40;38.50
32522;DHT22;18963;51.504;5.316;2022-08-14T10:20:05;37.10;38.60
32522;DHT22;18963;51.504;5.316;2022-08-14T10:22:32;36.70;38.50
32522;DHT22;18963;51.504;5.316;2022-08-14T10:24:57;36.60;39.30
32522;DHT22;18963;51.504;5.316;2022-08-14T10:27:33;36.40;39.40
32522;DHT22;18963;51.504;5.316;2022-08-14T10:29:59;36.80;40.10
32522;DHT22;18963;51.504;5.316;2022-08-14T10:32:25;37.20;40.00
32522;DHT22;18963;51.504;5.316;2022-08-14T10:35:01;37.20;40.30
32522;DHT22;18963;51.504;5.316;2022-08-14T10:37:35;37.50;40.30
32522;DHT22;18963;51.504;5.316;2022-08-14T10:40:02;37.80;38.20
32522;DHT22;18963;51.504;5.316;2022-08-14T10:42:35;37.60;38.00
32522;DHT22;18963;51.504;5.316;2022-08-14T10:45:02;37.50;38.40
32522;DHT22;18963;51.504;5.316;2022-08-14T10:47:34;37.60;38.00
32522;DHT22;18963;51.504;5.316;2022-08-14T10:50:01;37.80;37.90
32522;DHT22;18963;51.504;5.316;2022-08-14T10:52:28;38.30;37.90
32522;DHT22;18963;51.504;5.316;2022-08-14T10:55:09;38.60;37.20
32522;DHT22;18963;51.504;5.316;2022-08-14T10:57:53;39.00;37.20
32522;DHT22;18963;51.504;5.316;2022-08-14T11:00:22;38.80;36.90
32522;DHT22;18963;51.504;5.316;2022-08-14T11:02:58;38.90;36.50
32522;DHT22;18963;51.504;5.316;2022-08-14T11:05:24;38.90;36.50
32522;DHT22;18963;51.504;5.316;2022-08-14T11:10:20;39.00;36.30
32522;DHT22;18963;51.504;5.316;2022-08-14T11:12:49;39.10;36.50
32522;DHT22;18963;51.504;5.316;2022-08-14T11:15:25;38.90;36.00
32522;DHT22;18963;51.504;5.316;2022-08-14T11:17:51;38.90;35.80
32522;DHT22;18963;51.504;5.316;2022-08-14T11:20:22;38.80;36.10
32522;DHT22;18963;51.504;5.316;2022-08-14T11:22:50;38.80;35.60
32522;DHT22;18963;51.504;5.316;2022-08-14T11:25:16;38.80;35.90
32522;DHT22;18963;51.504;5.316;2022-08-14T11:27:43;39.00;36.10
32522;DHT22;18963;51.504;5.316;2022-08-14T11:30:10;38.90;34.70
32522;DHT22;18963;51.504;5.316;2022-08-14T11:32:37;38.70;35.30
32522;DHT22;18963;51.504;5.316;2022-08-14T11:35:03;38.90;35.60
32522;DHT22;18963;51.504;5.316;2022-08-14T11:37:30;39.10;35.70
32522;DHT22;18963;51.504;5.316;2022-08-14T11:39:58;39.30;34.80
32522;DHT22;18963;51.504;5.316;2022-08-14T11:42:24;39.40;34.80
32522;DHT22;18963;51.504;5.316;2022-08-14T11:44:51;39.70;34.60
32522;DHT22;18963;51.504;5.316;2022-08-14T11:47:17;40.00;33.90
32522;DHT22;18963;51.504;5.316;2022-08-14T11:49:46;40.00;32.80
32522;DHT22;18963;51.504;5.316;2022-08-14T11:52:15;39.60;33.50
32522;DHT22;18963;51.504;5.316;2022-08-14T11:54:41;39.00;33.60
32522;DHT22;18963;51.504;5.316;2022-08-14T11:57:15;38.60;34.50
32522;DHT22;18963;51.504;5.316;2022-08-14T11:59:41;38.70;34.40
32522;DHT22;18963;51.504;5.316;2022-08-14T12:02:10;38.90;34.60
32522;DHT22;18963;51.504;5.316;2022-08-14T12:04:46;38.50;34.80
32522;DHT22;18963;51.504;5.316;2022-08-14T12:07:12;39.00;35.10
32522;DHT22;18963;51.504;5.316;2022-08-14T12:09:37;39.60;34.90
32522;DHT22;18963;51.504;5.316;2022-08-14T12:14:58;39.50;34.40
32522;DHT22;18963;51.504;5.316;2022-08-14T12:17:29;40.00;34.60
32522;DHT22;18963;51.504;5.316;2022-08-14T12:19:56;40.50;34.30
32522;DHT22;18963;51.504;5.316;2022-08-14T12:25:19;40.30;33.40
32522;DHT22;18963;51.504;5.316;2022-08-14T12:27:46;39.70;34.40
32522;DHT22;18963;51.504;5.316;2022-08-14T12:30:32;39.50;34.30
32522;DHT22;18963;51.504;5.316;2022-08-14T12:32:58;39.00;34.40
32522;DHT22;18963;51.504;5.316;2022-08-14T12:35:36;38.10;34.70
32522;DHT22;18963;51.504;5.316;2022-08-14T12:38:02;37.50;35.60
32522;DHT22;18963;51.504;5.316;2022-08-14T12:40:28;37.10;35.60
32522;DHT22;18963;51.504;5.316;2022-08-14T12:43:02;36.80;35.90
32522;DHT22;18963;51.504;5.316;2022-08-14T12:45:31;36.70;36.00
32522;DHT22;18963;51.504;5.316;2022-08-14T12:47:58;36.20;36.60
32522;DHT22;18963;51.504;5.316;2022-08-14T12:50:33;35.50;37.40
32522;DHT22;18963;51.504;5.316;2022-08-14T12:52:58;35.30;37.70
32522;DHT22;18963;51.504;5.316;2022-08-14T12:55:24;34.70;37.90
32522;DHT22;18963;51.504;5.316;2022-08-14T12:57:50;34.70;39.00
32522;DHT22;18963;51.504;5.316;2022-08-14T13:00:17;34.70;38.40
32522;DHT22;18963;51.504;5.316;2022-08-14T13:02:44;34.80;38.30
32522;DHT22;18963;51.504;5.316;2022-08-14T13:05:11;34.70;37.70
32522;DHT22;18963;51.504;5.316;2022-08-14T13:07:37;34.70;37.80
32522;DHT22;18963;51.504;5.316;2022-08-14T13:10:08;34.60;38.40
32522;DHT22;18963;51.504;5.316;2022-08-14T13:12:35;34.50;37.70
32522;DHT22;18963;51.504;5.316;2022-08-14T13:15:01;34.50;38.20
32522;DHT22;18963;51.504;5.316;2022-08-14T13:17:27;34.30;38.00
32522;DHT22;18963;51.504;5.316;2022-08-14T13:19:54;34.40;38.00
32522;DHT22;18963;51.504;5.316;2022-08-14T13:22:21;34.30;37.90
32522;DHT22;18963;51.504;5.316;2022-08-14T13:24:51;34.10;38.10
32522;DHT22;18963;51.504;5.316;2022-08-14T13:27:16;34.10;37.80
32522;DHT22;18963;51.504;5.316;2022-08-14T13:29:44;34.20;37.70
32522;DHT22;18963;51.504;5.316;2022-08-14T13:32:10;34.10;37.20
32522;DHT22;18963;51.504;5.316;2022-08-14T13:34:36;34.00;36.80
32522;DHT22;18963;51.504;5.316;2022-08-14T13:37:02;34.10;37.30
32522;DHT22;18963;51.504;5.316;2022-08-14T13:39:31;34.00;37.10
32522;DHT22;18963;51.504;5.316;2022-08-14T13:41:57;33.90;37.20
32522;DHT22;18963;51.504;5.316;2022-08-14T13:44:28;33.90;37.30
32522;DHT22;18963;51.504;5.316;2022-08-14T13:47:00;33.80;36.90
32522;DHT22;18963;51.504;5.316;2022-08-14T13:49:31;33.80;37.20
32522;DHT22;18963;51.504;5.316;2022-08-14T13:51:56;33.70;37.10
32522;DHT22;18963;51.504;5.316;2022-08-14T13:54:23;33.80;37.20
32522;DHT22;18963;51.504;5.316;2022-08-14T13:56:49;33.90;37.60
32522;DHT22;18963;51.504;5.316;2022-08-14T13:59:15;33.90;37.40
32522;DHT22;18963;51.504;5.316;2022-08-14T14:01:41;34.00;38.30
32522;DHT22;18963;51.504;5.316;2022-08-14T14:04:16;33.70;37.80
32522;DHT22;18963;51.504;5.316;2022-08-14T14:06:42;33.70;38.10
32522;DHT22;18963;51.504;5.316;2022-08-14T14:09:08;33.60;38.00
32522;DHT22;18963;51.504;5.316;2022-08-14T14:11:34;33.50;38.20
32522;DHT22;18963;51.504;5.316;2022-08-14T14:14:00;33.50;37.90
32522;DHT22;18963;51.504;5.316;2022-08-14T14:16:25;33.40;37.30
32522;DHT22;18963;51.504;5.316;2022-08-14T14:18:51;33.50;37.30
32522;DHT22;18963;51.504;5.316;2022-08-14T14:21:20;33.40;37.90
32522;DHT22;18963;51.504;5.316;2022-08-14T14:23:48;33.30;37.90
32522;DHT22;18963;51.504;5.316;2022-08-14T14:26:15;33.10;37.90
32522;DHT22;18963;51.504;5.316;2022-08-14T14:28:42;33.20;38.40
32522;DHT22;18963;51.504;5.316;2022-08-14T14:31:08;33.20;38.90
32522;DHT22;18963;51.504;5.316;2022-08-14T14:33:36;33.20;38.70
32522;DHT22;18963;51.504;5.316;2022-08-14T14:36:06;33.40;38.20
32522;DHT22;18963;51.504;5.316;2022-08-14T14:38:32;33.40;38.60
32522;DHT22;18963;51.504;5.316;2022-08-14T14:40:58;33.40;38.60
32522;DHT22;18963;51.504;5.316;2022-08-14T14:43:25;33.30;39.00
32522;DHT22;18963;51.504;5.316;2022-08-14T14:45:52;33.30;38.80
32522;DHT22;18963;51.504;5.316;2022-08-14T14:48:18;33.20;38.50
32522;DHT22;18963;51.504;5.316;2022-08-14T14:50:44;33.20;38.40
32522;DHT22;18963;51.504;5.316;2022-08-14T14:53:10;33.10;38.20
32522;DHT22;18963;51.504;5.316;2022-08-14T14:55:37;33.00;38.40
32522;DHT22;18963;51.504;5.316;2022-08-14T14:58:04;32.80;38.70
32522;DHT22;18963;51.504;5.316;2022-08-14T15:00:30;32.80;39.20
32522;DHT22;18963;51.504;5.316;2022-08-14T15:02:55;32.70;38.90
32522;DHT22;18963;51.504;5.316;2022-08-14T15:05:21;32.70;39.10
32522;DHT22;18963;51.504;5.316;2022-08-14T15:07:49;32.50;39.40
32522;DHT22;18963;51.504;5.316;2022-08-14T15:10:16;32.40;39.30
32522;DHT22;18963;51.504;5.316;2022-08-14T15:12:42;32.40;39.40
32522;DHT22;18963;51.504;5.316;2022-08-14T15:15:11;32.40;38.70
32522;DHT22;18963;51.504;5.316;2022-08-14T15:17:39;32.40;38.70
32522;DHT22;18963;51.504;5.316;2022-08-14T15:20:06;32.40;39.40
32522;DHT22;18963;51.504;5.316;2022-08-14T15:22:34;32.50;39.50
32522;DHT22;18963;51.504;5.316;2022-08-14T15:25:03;32.60;39.40
32522;DHT22;18963;51.504;5.316;2022-08-14T15:27:28;32.60;39.20
32522;DHT22;18963;51.504;5.316;2022-08-14T15:29:56;32.60;39.20
32522;DHT22;18963;51.504;5.316;2022-08-14T15:32:21;32.60;39.10
32522;DHT22;18963;51.504;5.316;2022-08-14T15:34:47;32.60;39.60
32522;DHT22;18963;51.504;5.316;2022-08-14T15:37:12;32.60;39.10
32522;DHT22;18963;51.504;5.316;2022-08-14T15:39:38;32.60;39.10
32522;DHT22;18963;51.504;5.316;2022-08-14T15:42:05;32.60;39.10
32522;DHT22;18963;51.504;5.316;2022-08-14T15:44:30;32.70;39.10
32522;DHT22;18963;51.504;5.316;2022-08-14T15:46:57;32.80;39.40
32522;DHT22;18963;51.504;5.316;2022-08-14T15:49:24;32.90;39.70
32522;DHT22;18963;51.504;5.316;2022-08-14T15:51:55;32.90;38.80
32522;DHT22;18963;51.504;5.316;2022-08-14T15:54:24;32.90;38.30
32522;DHT22;18963;51.504;5.316;2022-08-14T15:57:01;33.00;38.50